ABG966 UNKL-UHBB
Flight info
| Callsign | ABG966 |
|---|---|
| Flight time | 3h 19m |
| Altitude | 33000 |
| Route | ATREG2F ATREG R497 RO B151 BRT G363 BALUP/K0850F350 G363 GU G229 NINON B811 WZ WZ2W |
| Aircraft | B738/M-SADE2E3FGHIRWXY/SB1 |
Departure
| Time | 2026-04-24 05:07 |
|---|---|
| Airport | Krasnoyarsk International Airport (UNKL) |
Arrival
| Time | 2026-04-24 08:27 |
|---|---|
| Airport | Ignatyevo Airport (UHBB) |
| Time | Latitude | Longitude | Altitude | Speed | Heading |
|---|---|---|---|---|---|
| 2026-04-24 04:51 | 56.17943 | 92.48540 | 956 ft | 0 kts | 23° |
| 2026-04-24 04:53 | 56.17934 | 92.48533 | 952 ft | 4 kts | 23° |
| 2026-04-24 04:53 | 56.17910 | 92.48514 | 956 ft | 4 kts | 19° |
| 2026-04-24 04:53 | 56.17884 | 92.48505 | 956 ft | 4 kts | 357° |
| 2026-04-24 04:54 | 56.17859 | 92.48515 | 955 ft | 3 kts | 333° |
| 2026-04-24 04:54 | 56.17856 | 92.48518 | 956 ft | 1 kts | 332° |
| 2026-04-24 05:02 | 56.17859 | 92.48498 | 956 ft | 3 kts | 266° |
| 2026-04-24 05:02 | 56.17829 | 92.48456 | 953 ft | 9 kts | 203° |
| 2026-04-24 05:02 | 56.17750 | 92.48417 | 956 ft | 14 kts | 158° |
| 2026-04-24 05:02 | 56.17693 | 92.48599 | 956 ft | 20 kts | 112° |
| 2026-04-24 05:03 | 56.17632 | 92.48866 | 953 ft | 26 kts | 113° |
| 2026-04-24 05:03 | 56.17556 | 92.49172 | 953 ft | 28 kts | 111° |
| 2026-04-24 05:03 | 56.17486 | 92.49482 | 952 ft | 25 kts | 115° |
| 2026-04-24 05:03 | 56.17438 | 92.49682 | 954 ft | 26 kts | 114° |
| 2026-04-24 05:04 | 56.17344 | 92.50077 | 956 ft | 24 kts | 114° |
| 2026-04-24 05:04 | 56.17299 | 92.50266 | 952 ft | 23 kts | 112° |
| 2026-04-24 05:04 | 56.17236 | 92.50537 | 956 ft | 25 kts | 114° |
| 2026-04-24 05:04 | 56.17163 | 92.50829 | 954 ft | 27 kts | 117° |
| 2026-04-24 05:05 | 56.17092 | 92.51132 | 955 ft | 26 kts | 110° |
| 2026-04-24 05:05 | 56.17018 | 92.51442 | 956 ft | 28 kts | 112° |
| 2026-04-24 05:05 | 56.16950 | 92.51726 | 954 ft | 23 kts | 112° |
| 2026-04-24 05:05 | 56.16893 | 92.51965 | 954 ft | 17 kts | 119° |
| 2026-04-24 05:06 | 56.16775 | 92.52029 | 954 ft | 19 kts | 172° |
| 2026-04-24 05:06 | 56.16667 | 92.51979 | 953 ft | 15 kts | 274° |
| 2026-04-24 05:06 | 56.16737 | 92.51675 | 953 ft | 55 kts | 292° |
| 2026-04-24 05:06 | 56.16977 | 92.50663 | 955 ft | 120 kts | 293° |
| 2026-04-24 05:07 | 56.17366 | 92.48973 | 984 ft | 168 kts | 292° |
| 2026-04-24 05:07 | 56.17848 | 92.46972 | 1500 ft | 178 kts | 293° |
| 2026-04-24 05:07 | 56.18381 | 92.44909 | 2127 ft | 187 kts | 294° |
| 2026-04-24 05:07 | 56.18971 | 92.42772 | 2735 ft | 195 kts | 293° |
| 2026-04-24 05:08 | 56.19586 | 92.40503 | 3109 ft | 211 kts | 288° |
| 2026-04-24 05:08 | 56.20153 | 92.37913 | 3374 ft | 234 kts | 286° |
| 2026-04-24 05:08 | 56.20755 | 92.35097 | 3930 ft | 245 kts | 287° |
| 2026-04-24 05:08 | 56.21385 | 92.32272 | 4838 ft | 241 kts | 287° |
| 2026-04-24 05:09 | 56.21655 | 92.29358 | 5638 ft | 236 kts | 264° |
| 2026-04-24 05:09 | 56.21224 | 92.26538 | 6480 ft | 237 kts | 245° |
| 2026-04-24 05:09 | 56.20186 | 92.24232 | 7142 ft | 250 kts | 224° |
| 2026-04-24 05:09 | 56.18544 | 92.22805 | 7719 ft | 272 kts | 198° |
| 2026-04-24 05:10 | 56.16593 | 92.22870 | 8381 ft | 291 kts | 173° |
| 2026-04-24 05:10 | 56.14674 | 92.24268 | 9034 ft | 307 kts | 155° |
| 2026-04-24 05:10 | 56.12891 | 92.26383 | 9667 ft | 314 kts | 150° |
| 2026-04-24 05:10 | 56.11116 | 92.28701 | 10232 ft | 322 kts | 149° |
| 2026-04-24 05:11 | 56.09236 | 92.31134 | 10412 ft | 344 kts | 150° |
| 2026-04-24 05:11 | 56.07224 | 92.33672 | 10582 ft | 363 kts | 150° |
| 2026-04-24 05:11 | 56.05090 | 92.36314 | 10727 ft | 382 kts | 150° |
| 2026-04-24 05:11 | 56.02850 | 92.39053 | 10988 ft | 396 kts | 150° |
| 2026-04-24 05:12 | 56.00555 | 92.41831 | 11579 ft | 399 kts | 150° |
| 2026-04-24 05:12 | 55.98244 | 92.44616 | 12262 ft | 400 kts | 151° |
| 2026-04-24 05:12 | 55.95955 | 92.47501 | 12753 ft | 409 kts | 143° |
| 2026-04-24 05:12 | 55.94135 | 92.51476 | 13379 ft | 420 kts | 121° |
| 2026-04-24 05:13 | 55.91905 | 92.61223 | 14592 ft | 427 kts | 113° |
| 2026-04-24 05:13 | 55.90864 | 92.66207 | 15088 ft | 431 kts | 113° |
| 2026-04-24 05:13 | 55.89807 | 92.71228 | 15583 ft | 434 kts | 113° |
| 2026-04-24 05:14 | 55.88732 | 92.76260 | 16130 ft | 435 kts | 114° |
| 2026-04-24 05:14 | 55.87639 | 92.81301 | 16687 ft | 437 kts | 114° |
| 2026-04-24 05:14 | 55.86531 | 92.86358 | 17168 ft | 440 kts | 114° |
| 2026-04-24 05:14 | 55.85409 | 92.91445 | 17601 ft | 444 kts | 114° |
| 2026-04-24 05:15 | 55.84275 | 92.96563 | 18088 ft | 446 kts | 114° |
| 2026-04-24 05:15 | 55.83130 | 93.01716 | 18581 ft | 447 kts | 114° |
| 2026-04-24 05:15 | 55.81983 | 93.06869 | 19014 ft | 450 kts | 115° |
| 2026-04-24 05:15 | 55.80821 | 93.12079 | 19401 ft | 454 kts | 115° |
| 2026-04-24 05:16 | 55.79650 | 93.17316 | 19848 ft | 456 kts | 115° |
| 2026-04-24 05:16 | 55.78477 | 93.22553 | 20280 ft | 458 kts | 115° |
| 2026-04-24 05:16 | 55.77305 | 93.27773 | 20670 ft | 461 kts | 115° |
| 2026-04-24 05:16 | 55.76097 | 93.33147 | 21050 ft | 464 kts | 115° |
| 2026-04-24 05:17 | 55.74908 | 93.38414 | 21449 ft | 466 kts | 115° |
| 2026-04-24 05:17 | 55.73602 | 93.43646 | 21835 ft | 465 kts | 120° |
| 2026-04-24 05:17 | 55.72068 | 93.48733 | 22192 ft | 466 kts | 123° |
| 2026-04-24 05:17 | 55.70439 | 93.53708 | 22537 ft | 468 kts | 124° |
| 2026-04-24 05:18 | 55.68770 | 93.58692 | 22866 ft | 471 kts | 124° |
| 2026-04-24 05:18 | 55.67102 | 93.63699 | 23216 ft | 473 kts | 123° |
| 2026-04-24 05:18 | 55.65443 | 93.68745 | 23574 ft | 474 kts | 123° |
| 2026-04-24 05:18 | 55.63794 | 93.73829 | 23890 ft | 476 kts | 123° |
| 2026-04-24 05:19 | 55.62148 | 93.78940 | 24177 ft | 479 kts | 123° |
| 2026-04-24 05:19 | 55.60500 | 93.84077 | 24474 ft | 481 kts | 123° |
| 2026-04-24 05:19 | 55.58845 | 93.89236 | 24760 ft | 483 kts | 123° |
| 2026-04-24 05:19 | 55.57202 | 93.94347 | 25001 ft | 486 kts | 123° |
| 2026-04-24 05:20 | 55.55501 | 93.99625 | 25287 ft | 488 kts | 123° |
| 2026-04-24 05:20 | 55.53817 | 94.04830 | 25566 ft | 489 kts | 123° |
| 2026-04-24 05:20 | 55.52147 | 94.09983 | 25853 ft | 490 kts | 123° |
| 2026-04-24 05:20 | 55.50454 | 94.15198 | 26253 ft | 489 kts | 123° |
| 2026-04-24 05:21 | 55.48763 | 94.20397 | 26648 ft | 488 kts | 123° |
| 2026-04-24 05:21 | 55.47052 | 94.25644 | 26991 ft | 487 kts | 123° |
| 2026-04-24 05:21 | 55.45356 | 94.30829 | 27255 ft | 489 kts | 123° |
| 2026-04-24 05:21 | 55.43653 | 94.36020 | 27556 ft | 489 kts | 123° |
| 2026-04-24 05:22 | 55.41973 | 94.41130 | 27888 ft | 489 kts | 123° |
| 2026-04-24 05:22 | 55.40272 | 94.46301 | 28218 ft | 488 kts | 123° |
| 2026-04-24 05:22 | 55.38565 | 94.51475 | 28554 ft | 488 kts | 123° |
| 2026-04-24 05:22 | 55.36859 | 94.56636 | 28895 ft | 487 kts | 123° |
| 2026-04-24 05:23 | 55.35157 | 94.61775 | 29167 ft | 488 kts | 123° |
| 2026-04-24 05:23 | 55.33447 | 94.66927 | 29436 ft | 488 kts | 123° |
| 2026-04-24 05:23 | 55.31736 | 94.72077 | 29738 ft | 488 kts | 123° |
| 2026-04-24 05:23 | 55.30022 | 94.77220 | 30035 ft | 487 kts | 124° |
| 2026-04-24 05:24 | 55.28446 | 94.82505 | 30241 ft | 493 kts | 111° |
| 2026-04-24 05:24 | 55.27724 | 94.88418 | 30460 ft | 497 kts | 94° |
| 2026-04-24 05:24 | 55.27882 | 94.94440 | 30723 ft | 496 kts | 77° |
| 2026-04-24 05:24 | 55.28867 | 95.00214 | 30952 ft | 494 kts | 68° |
| 2026-04-24 05:25 | 55.30068 | 95.05858 | 31211 ft | 493 kts | 67° |
| 2026-04-24 05:25 | 55.31300 | 95.11488 | 31470 ft | 493 kts | 66° |
| 2026-04-24 05:25 | 55.32521 | 95.17112 | 31744 ft | 492 kts | 67° |
| 2026-04-24 05:25 | 55.33717 | 95.22732 | 32044 ft | 491 kts | 67° |
| 2026-04-24 05:26 | 55.34894 | 95.28370 | 32282 ft | 491 kts | 67° |
| 2026-04-24 05:26 | 55.36052 | 95.34006 | 32519 ft | 491 kts | 68° |
| 2026-04-24 05:26 | 55.37203 | 95.39656 | 32733 ft | 491 kts | 68° |
| 2026-04-24 05:26 | 55.38348 | 95.45303 | 32928 ft | 491 kts | 68° |
| 2026-04-24 05:27 | 55.39493 | 95.50966 | 33186 ft | 490 kts | 67° |
| 2026-04-24 05:27 | 55.40619 | 95.56546 | 33433 ft | 489 kts | 67° |
| 2026-04-24 05:27 | 55.41754 | 95.62187 | 33665 ft | 488 kts | 67° |
| 2026-04-24 05:27 | 55.42885 | 95.67813 | 33846 ft | 489 kts | 67° |
| 2026-04-24 05:28 | 55.44019 | 95.73473 | 34001 ft | 490 kts | 67° |
| 2026-04-24 05:28 | 55.45149 | 95.79125 | 34211 ft | 489 kts | 67° |
| 2026-04-24 05:28 | 55.46275 | 95.84777 | 34432 ft | 488 kts | 67° |
| 2026-04-24 05:28 | 55.47395 | 95.90417 | 34637 ft | 487 kts | 67° |
| 2026-04-24 05:29 | 55.48515 | 95.96065 | 34770 ft | 488 kts | 67° |
| 2026-04-24 05:29 | 55.50739 | 96.07332 | 34807 ft | 486 kts | 67° |
| 2026-04-24 05:30 | 55.52951 | 96.18612 | 34833 ft | 487 kts | 67° |
| 2026-04-24 05:30 | 55.55161 | 96.29935 | 34830 ft | 488 kts | 67° |
| 2026-04-24 05:31 | 55.57364 | 96.41297 | 34833 ft | 489 kts | 67° |
| 2026-04-24 05:31 | 55.59562 | 96.52697 | 34811 ft | 490 kts | 67° |
| 2026-04-24 05:32 | 55.61748 | 96.64112 | 34840 ft | 490 kts | 67° |
| 2026-04-24 05:32 | 55.63927 | 96.75552 | 34831 ft | 490 kts | 67° |
| 2026-04-24 05:33 | 55.66091 | 96.86981 | 34832 ft | 489 kts | 67° |
| 2026-04-24 05:33 | 55.68242 | 96.98409 | 34842 ft | 488 kts | 67° |
| 2026-04-24 05:34 | 55.71440 | 97.15531 | 34843 ft | 487 kts | 67° |
| 2026-04-24 05:34 | 55.73553 | 97.26931 | 34843 ft | 486 kts | 67° |
| 2026-04-24 05:35 | 55.75651 | 97.38317 | 34847 ft | 485 kts | 67° |
| 2026-04-24 05:35 | 55.77736 | 97.49705 | 34855 ft | 484 kts | 66° |
| 2026-04-24 05:36 | 55.79808 | 97.61083 | 34852 ft | 484 kts | 66° |
| 2026-04-24 05:36 | 55.81868 | 97.72475 | 34861 ft | 484 kts | 66° |
| 2026-04-24 05:37 | 55.83921 | 97.83881 | 34880 ft | 484 kts | 66° |
| 2026-04-24 05:37 | 55.85959 | 97.95325 | 34878 ft | 485 kts | 67° |
| 2026-04-24 05:38 | 55.87946 | 98.06838 | 34885 ft | 486 kts | 68° |
| 2026-04-24 05:38 | 55.89904 | 98.18321 | 34887 ft | 487 kts | 68° |
| 2026-04-24 05:39 | 55.91872 | 98.29901 | 34893 ft | 488 kts | 68° |
| 2026-04-24 05:39 | 55.93836 | 98.41509 | 34895 ft | 489 kts | 68° |
| 2026-04-24 05:40 | 55.95791 | 98.53136 | 34893 ft | 490 kts | 68° |
| 2026-04-24 05:40 | 55.97738 | 98.64794 | 34887 ft | 490 kts | 68° |
| 2026-04-24 05:41 | 55.99662 | 98.76393 | 34884 ft | 489 kts | 67° |
| 2026-04-24 05:41 | 56.01582 | 98.88050 | 34889 ft | 488 kts | 67° |
| 2026-04-24 05:42 | 56.03490 | 98.99706 | 34901 ft | 488 kts | 67° |
| 2026-04-24 05:42 | 56.05384 | 99.11352 | 34900 ft | 487 kts | 67° |
| 2026-04-24 05:43 | 56.07267 | 99.23005 | 34895 ft | 487 kts | 66° |
| 2026-04-24 05:43 | 56.08808 | 99.32688 | 34899 ft | 488 kts | 68° |
| 2026-04-24 05:44 | 56.10379 | 99.44544 | 34897 ft | 490 kts | 70° |
| 2026-04-24 05:44 | 56.11848 | 99.56457 | 34899 ft | 489 kts | 70° |
| 2026-04-24 05:45 | 56.13348 | 99.68332 | 34910 ft | 488 kts | 70° |
| 2026-04-24 05:45 | 56.14860 | 99.80192 | 34902 ft | 487 kts | 69° |
| 2026-04-24 05:46 | 56.16360 | 99.92047 | 34915 ft | 487 kts | 70° |
| 2026-04-24 05:46 | 56.17844 | 100.03907 | 34911 ft | 487 kts | 70° |
| 2026-04-24 05:47 | 56.19312 | 100.15758 | 34901 ft | 487 kts | 70° |
| 2026-04-24 05:47 | 56.20763 | 100.27553 | 34907 ft | 486 kts | 70° |
| 2026-04-24 05:48 | 56.22211 | 100.39409 | 34909 ft | 486 kts | 70° |
| 2026-04-24 05:48 | 56.23652 | 100.51300 | 34912 ft | 486 kts | 70° |
| 2026-04-24 05:49 | 56.25083 | 100.63186 | 34909 ft | 487 kts | 70° |
| 2026-04-24 05:49 | 56.26503 | 100.75087 | 34909 ft | 487 kts | 70° |
| 2026-04-24 05:50 | 56.27914 | 100.87006 | 34910 ft | 487 kts | 70° |
| 2026-04-24 05:50 | 56.29311 | 100.98929 | 34909 ft | 486 kts | 70° |
| 2026-04-24 05:51 | 56.30688 | 101.10830 | 34905 ft | 484 kts | 70° |
| 2026-04-24 05:51 | 56.32047 | 101.22671 | 34912 ft | 482 kts | 69° |
| 2026-04-24 05:52 | 56.33391 | 101.34477 | 34903 ft | 479 kts | 69° |
| 2026-04-24 05:52 | 56.34709 | 101.46147 | 34909 ft | 476 kts | 69° |
| 2026-04-24 05:53 | 56.36014 | 101.57811 | 34914 ft | 474 kts | 69° |
| 2026-04-24 05:53 | 56.37195 | 101.69505 | 34907 ft | 479 kts | 76° |
| 2026-04-24 05:54 | 56.37193 | 101.81644 | 34915 ft | 485 kts | 84° |
| 2026-04-24 05:54 | 56.36945 | 101.93805 | 34922 ft | 484 kts | 83° |
| 2026-04-24 05:55 | 56.36742 | 102.05932 | 34914 ft | 483 kts | 83° |
| 2026-04-24 05:55 | 56.36570 | 102.18041 | 34920 ft | 483 kts | 83° |
| 2026-04-24 05:56 | 56.36393 | 102.30172 | 34926 ft | 484 kts | 83° |
| 2026-04-24 05:56 | 56.36199 | 102.42329 | 34918 ft | 485 kts | 83° |
| 2026-04-24 05:57 | 56.35991 | 102.54519 | 34923 ft | 486 kts | 83° |
| 2026-04-24 05:57 | 56.35766 | 102.66735 | 34919 ft | 487 kts | 83° |
| 2026-04-24 05:58 | 56.35529 | 102.78886 | 34916 ft | 488 kts | 83° |
| 2026-04-24 05:58 | 56.35280 | 102.91126 | 34921 ft | 488 kts | 83° |
| 2026-04-24 05:59 | 56.35020 | 103.03359 | 34913 ft | 488 kts | 83° |
| 2026-04-24 05:59 | 56.34748 | 103.15587 | 34920 ft | 487 kts | 83° |
| 2026-04-24 06:00 | 56.34464 | 103.27794 | 34915 ft | 486 kts | 83° |
| 2026-04-24 06:00 | 56.34171 | 103.39946 | 34915 ft | 484 kts | 83° |
| 2026-04-24 06:01 | 56.33870 | 103.52045 | 34915 ft | 482 kts | 83° |
| 2026-04-24 06:01 | 56.33571 | 103.64089 | 34916 ft | 480 kts | 83° |
| 2026-04-24 06:02 | 56.33266 | 103.76088 | 34915 ft | 478 kts | 82° |
| 2026-04-24 06:02 | 56.32949 | 103.88044 | 34914 ft | 477 kts | 83° |
| 2026-04-24 06:03 | 56.32621 | 103.99957 | 34921 ft | 476 kts | 83° |
| 2026-04-24 06:03 | 56.32285 | 104.11879 | 34916 ft | 477 kts | 83° |
| 2026-04-24 06:04 | 56.31921 | 104.23827 | 34920 ft | 478 kts | 83° |
| 2026-04-24 06:04 | 56.31535 | 104.35785 | 34921 ft | 478 kts | 83° |
| 2026-04-24 06:05 | 56.31141 | 104.47672 | 34920 ft | 478 kts | 83° |
| 2026-04-24 06:05 | 56.30736 | 104.59641 | 34917 ft | 479 kts | 83° |
| 2026-04-24 06:06 | 56.30318 | 104.71587 | 34936 ft | 479 kts | 83° |
| 2026-04-24 06:06 | 56.29890 | 104.83572 | 34934 ft | 479 kts | 83° |
| 2026-04-24 06:07 | 56.29451 | 104.95570 | 34931 ft | 481 kts | 83° |
| 2026-04-24 06:07 | 56.28997 | 105.07612 | 34927 ft | 483 kts | 84° |
| 2026-04-24 06:08 | 56.28529 | 105.19708 | 34915 ft | 486 kts | 85° |
| 2026-04-24 06:08 | 56.28047 | 105.31850 | 34913 ft | 487 kts | 84° |
| 2026-04-24 06:09 | 56.27552 | 105.44033 | 34920 ft | 488 kts | 85° |
| 2026-04-24 06:09 | 56.27043 | 105.56221 | 34926 ft | 488 kts | 84° |
| 2026-04-24 06:10 | 56.26524 | 105.68392 | 34909 ft | 488 kts | 84° |
| 2026-04-24 06:11 | 56.25725 | 105.86609 | 34923 ft | 486 kts | 84° |
| 2026-04-24 06:11 | 56.25181 | 105.98693 | 34916 ft | 483 kts | 84° |
| 2026-04-24 06:12 | 56.24628 | 106.10728 | 34913 ft | 482 kts | 85° |
| 2026-04-24 06:12 | 56.24065 | 106.22708 | 34915 ft | 480 kts | 84° |
| 2026-04-24 06:13 | 56.23493 | 106.34630 | 34926 ft | 478 kts | 84° |
| 2026-04-24 06:13 | 56.22911 | 106.46544 | 34922 ft | 477 kts | 85° |
| 2026-04-24 06:14 | 56.22319 | 106.58426 | 34926 ft | 477 kts | 85° |
| 2026-04-24 06:14 | 56.21717 | 106.70319 | 34929 ft | 478 kts | 85° |
| 2026-04-24 06:15 | 56.21097 | 106.82214 | 34929 ft | 478 kts | 85° |
| 2026-04-24 06:15 | 56.20470 | 106.94038 | 34931 ft | 479 kts | 85° |
| 2026-04-24 06:16 | 56.19824 | 107.06057 | 34939 ft | 481 kts | 86° |
| 2026-04-24 06:16 | 56.19156 | 107.17968 | 34937 ft | 484 kts | 86° |
| 2026-04-24 06:17 | 56.18485 | 107.30007 | 34928 ft | 485 kts | 86° |
| 2026-04-24 06:17 | 56.17802 | 107.42094 | 34938 ft | 487 kts | 86° |
| 2026-04-24 06:18 | 56.17104 | 107.54195 | 34938 ft | 488 kts | 86° |
| 2026-04-24 06:18 | 56.16392 | 107.66323 | 34944 ft | 489 kts | 87° |
| 2026-04-24 06:19 | 56.15669 | 107.78437 | 34939 ft | 489 kts | 87° |
| 2026-04-24 06:19 | 56.14933 | 107.90547 | 34947 ft | 488 kts | 87° |
| 2026-04-24 06:20 | 56.14188 | 108.02636 | 34943 ft | 487 kts | 87° |
| 2026-04-24 06:20 | 56.13434 | 108.14678 | 34944 ft | 485 kts | 87° |
| 2026-04-24 06:21 | 56.12669 | 108.26686 | 34946 ft | 484 kts | 88° |
| 2026-04-24 06:21 | 56.11896 | 108.38657 | 34936 ft | 483 kts | 88° |
| 2026-04-24 06:22 | 56.11113 | 108.50554 | 34953 ft | 481 kts | 88° |
| 2026-04-24 06:22 | 56.10323 | 108.62434 | 34943 ft | 479 kts | 88° |
| 2026-04-24 06:23 | 56.09523 | 108.74305 | 34959 ft | 480 kts | 89° |
| 2026-04-24 06:23 | 56.08708 | 108.86197 | 34950 ft | 481 kts | 89° |
| 2026-04-24 06:24 | 56.07876 | 108.98114 | 34946 ft | 482 kts | 90° |
| 2026-04-24 06:24 | 56.07035 | 109.10000 | 34958 ft | 481 kts | 90° |
| 2026-04-24 06:25 | 56.06331 | 109.19882 | 34953 ft | 481 kts | 90° |
| 2026-04-24 06:25 | 56.05472 | 109.31768 | 34955 ft | 481 kts | 90° |
| 2026-04-24 06:26 | 56.04603 | 109.43602 | 34960 ft | 479 kts | 91° |
| 2026-04-24 06:26 | 56.03726 | 109.55391 | 34947 ft | 477 kts | 91° |
| 2026-04-24 06:27 | 56.02843 | 109.67106 | 34949 ft | 474 kts | 91° |
| 2026-04-24 06:27 | 56.01958 | 109.78744 | 34958 ft | 471 kts | 91° |
| 2026-04-24 06:28 | 56.01063 | 109.90346 | 34963 ft | 472 kts | 91° |
| 2026-04-24 06:28 | 56.00155 | 110.01961 | 34958 ft | 472 kts | 91° |
| 2026-04-24 06:29 | 55.99236 | 110.13591 | 34969 ft | 472 kts | 91° |
| 2026-04-24 06:29 | 55.98310 | 110.25219 | 34962 ft | 473 kts | 91° |
| 2026-04-24 06:30 | 55.97371 | 110.36858 | 34970 ft | 474 kts | 92° |
| 2026-04-24 06:30 | 55.96414 | 110.48554 | 34965 ft | 475 kts | 92° |
| 2026-04-24 06:31 | 55.95447 | 110.60245 | 34968 ft | 476 kts | 92° |
| 2026-04-24 06:31 | 55.94469 | 110.71938 | 34970 ft | 477 kts | 92° |
| 2026-04-24 06:32 | 55.93487 | 110.83557 | 34965 ft | 477 kts | 92° |
| 2026-04-24 06:32 | 55.92484 | 110.95278 | 34963 ft | 478 kts | 93° |
| 2026-04-24 06:33 | 55.91466 | 111.07048 | 34961 ft | 477 kts | 93° |
| 2026-04-24 06:33 | 55.90451 | 111.18663 | 34956 ft | 476 kts | 94° |
| 2026-04-24 06:34 | 55.89424 | 111.30314 | 34967 ft | 475 kts | 94° |
| 2026-04-24 06:34 | 55.88386 | 111.41927 | 34960 ft | 474 kts | 94° |
| 2026-04-24 06:35 | 55.87326 | 111.53563 | 34964 ft | 472 kts | 95° |
| 2026-04-24 06:35 | 55.86272 | 111.65016 | 34965 ft | 471 kts | 95° |
| 2026-04-24 06:36 | 55.85205 | 111.76499 | 34948 ft | 469 kts | 95° |
| 2026-04-24 06:36 | 55.84132 | 111.87910 | 34965 ft | 467 kts | 95° |
| 2026-04-24 06:37 | 55.83054 | 111.99296 | 34959 ft | 466 kts | 95° |
| 2026-04-24 06:37 | 55.81968 | 112.10650 | 34963 ft | 466 kts | 95° |
| 2026-04-24 06:38 | 55.80870 | 112.22007 | 34971 ft | 466 kts | 95° |
| 2026-04-24 06:38 | 55.79761 | 112.33354 | 34939 ft | 465 kts | 96° |
| 2026-04-24 06:39 | 55.78647 | 112.44637 | 34980 ft | 463 kts | 96° |
| 2026-04-24 06:39 | 55.77524 | 112.55917 | 34985 ft | 464 kts | 96° |
| 2026-04-24 06:40 | 55.76385 | 112.67230 | 34984 ft | 465 kts | 96° |
| 2026-04-24 06:40 | 55.75235 | 112.78562 | 34985 ft | 467 kts | 96° |
| 2026-04-24 06:41 | 55.74070 | 112.89924 | 34976 ft | 468 kts | 97° |
| 2026-04-24 06:41 | 55.72892 | 113.01295 | 34979 ft | 469 kts | 97° |
| 2026-04-24 06:42 | 55.71699 | 113.12695 | 34984 ft | 469 kts | 97° |
| 2026-04-24 06:42 | 55.70506 | 113.23996 | 34985 ft | 468 kts | 98° |
| 2026-04-24 06:43 | 55.69297 | 113.35331 | 35006 ft | 466 kts | 98° |
| 2026-04-24 06:43 | 55.68084 | 113.46592 | 34990 ft | 464 kts | 98° |
| 2026-04-24 06:44 | 55.66871 | 113.57803 | 34978 ft | 461 kts | 98° |
| 2026-04-24 06:44 | 55.65653 | 113.68923 | 34979 ft | 458 kts | 98° |
| 2026-04-24 06:45 | 55.64434 | 113.79961 | 34974 ft | 456 kts | 98° |
| 2026-04-24 06:45 | 55.63207 | 113.90963 | 34978 ft | 453 kts | 99° |
| 2026-04-24 06:46 | 55.61979 | 114.01887 | 34986 ft | 452 kts | 99° |
| 2026-04-24 06:46 | 55.60747 | 114.12773 | 34982 ft | 451 kts | 99° |
| 2026-04-24 06:47 | 55.59501 | 114.23671 | 34985 ft | 452 kts | 99° |
| 2026-04-24 06:47 | 55.58246 | 114.34569 | 34985 ft | 453 kts | 99° |
| 2026-04-24 06:48 | 55.56979 | 114.45483 | 34986 ft | 454 kts | 99° |
| 2026-04-24 06:48 | 55.55696 | 114.56437 | 34986 ft | 456 kts | 99° |
| 2026-04-24 06:49 | 55.54403 | 114.67369 | 34979 ft | 458 kts | 100° |
| 2026-04-24 06:49 | 55.53092 | 114.78381 | 34981 ft | 459 kts | 100° |
| 2026-04-24 06:50 | 55.51769 | 114.89391 | 34981 ft | 459 kts | 100° |
| 2026-04-24 06:50 | 55.50438 | 115.00393 | 34987 ft | 458 kts | 100° |
| 2026-04-24 06:51 | 55.49097 | 115.11384 | 34979 ft | 458 kts | 101° |
| 2026-04-24 06:51 | 55.47746 | 115.22352 | 34983 ft | 456 kts | 101° |
| 2026-04-24 06:52 | 55.46396 | 115.33249 | 34974 ft | 454 kts | 101° |
| 2026-04-24 06:52 | 55.45042 | 115.44087 | 34983 ft | 452 kts | 101° |
| 2026-04-24 06:53 | 55.43681 | 115.54893 | 34981 ft | 450 kts | 101° |
| 2026-04-24 06:53 | 55.42326 | 115.65574 | 34986 ft | 449 kts | 102° |
| 2026-04-24 06:54 | 55.40956 | 115.76274 | 34983 ft | 448 kts | 102° |
| 2026-04-24 06:54 | 55.39583 | 115.86942 | 34979 ft | 446 kts | 102° |
| 2026-04-24 06:55 | 55.38203 | 115.97585 | 34981 ft | 446 kts | 102° |
| 2026-04-24 06:55 | 55.36814 | 116.08206 | 34996 ft | 445 kts | 102° |
| 2026-04-24 06:56 | 55.35419 | 116.18814 | 34976 ft | 445 kts | 102° |
| 2026-04-24 06:56 | 55.34018 | 116.29392 | 34981 ft | 445 kts | 103° |
| 2026-04-24 06:57 | 55.32596 | 116.39976 | 34985 ft | 445 kts | 103° |
| 2026-04-24 06:57 | 55.31152 | 116.50569 | 34982 ft | 446 kts | 103° |
| 2026-04-24 06:58 | 55.29703 | 116.61150 | 34984 ft | 446 kts | 103° |
| 2026-04-24 06:58 | 55.28247 | 116.71717 | 34981 ft | 446 kts | 103° |
| 2026-04-24 06:59 | 55.26781 | 116.82284 | 34981 ft | 446 kts | 103° |
| 2026-04-24 06:59 | 55.25305 | 116.92851 | 34982 ft | 446 kts | 104° |
| 2026-04-24 07:00 | 55.23822 | 117.03412 | 34981 ft | 446 kts | 104° |
| 2026-04-24 07:00 | 55.22328 | 117.13961 | 34986 ft | 446 kts | 104° |
| 2026-04-24 07:01 | 55.20832 | 117.24443 | 34980 ft | 446 kts | 104° |
| 2026-04-24 07:01 | 55.19323 | 117.34964 | 34976 ft | 446 kts | 104° |
| 2026-04-24 07:02 | 55.17808 | 117.45468 | 34983 ft | 444 kts | 104° |
| 2026-04-24 07:02 | 55.16278 | 117.56006 | 34981 ft | 443 kts | 104° |
| 2026-04-24 07:03 | 55.14788 | 117.66385 | 34979 ft | 442 kts | 104° |
| 2026-04-24 07:03 | 55.13302 | 117.76810 | 34981 ft | 441 kts | 104° |
| 2026-04-24 07:04 | 55.11808 | 117.87203 | 34980 ft | 440 kts | 105° |
| 2026-04-24 07:04 | 55.10561 | 117.95823 | 34976 ft | 439 kts | 105° |
| 2026-04-24 07:05 | 55.09048 | 118.06154 | 34992 ft | 439 kts | 105° |
| 2026-04-24 07:05 | 55.07497 | 118.16448 | 34973 ft | 438 kts | 106° |
| 2026-04-24 07:06 | 55.05935 | 118.26700 | 34981 ft | 436 kts | 106° |
| 2026-04-24 07:06 | 55.04373 | 118.36931 | 34984 ft | 436 kts | 106° |
| 2026-04-24 07:07 | 55.02809 | 118.47122 | 34984 ft | 435 kts | 106° |
| 2026-04-24 07:07 | 55.00455 | 118.62354 | 34977 ft | 435 kts | 107° |
| 2026-04-24 07:08 | 54.98866 | 118.72540 | 34970 ft | 436 kts | 107° |
| 2026-04-24 07:08 | 54.97260 | 118.82791 | 34975 ft | 436 kts | 107° |
| 2026-04-24 07:09 | 54.95668 | 118.92883 | 34973 ft | 436 kts | 107° |
| 2026-04-24 07:09 | 54.94054 | 119.03059 | 34970 ft | 436 kts | 107° |
| 2026-04-24 07:10 | 54.92431 | 119.13236 | 34972 ft | 436 kts | 107° |
| 2026-04-24 07:10 | 54.90802 | 119.23386 | 34972 ft | 436 kts | 107° |
| 2026-04-24 07:11 | 54.89168 | 119.33523 | 34973 ft | 435 kts | 108° |
| 2026-04-24 07:11 | 54.87603 | 119.43188 | 34971 ft | 435 kts | 108° |
| 2026-04-24 07:12 | 54.85960 | 119.53285 | 34974 ft | 434 kts | 108° |
| 2026-04-24 07:12 | 54.84310 | 119.63369 | 34974 ft | 434 kts | 108° |
| 2026-04-24 07:13 | 54.82655 | 119.73424 | 34973 ft | 433 kts | 108° |
| 2026-04-24 07:13 | 54.80992 | 119.83469 | 34970 ft | 433 kts | 108° |
| 2026-04-24 07:14 | 54.79322 | 119.93497 | 34971 ft | 432 kts | 108° |
| 2026-04-24 07:14 | 54.77648 | 120.03492 | 34973 ft | 432 kts | 109° |
| 2026-04-24 07:15 | 54.75977 | 120.13412 | 34978 ft | 431 kts | 109° |
| 2026-04-24 07:15 | 54.74290 | 120.23374 | 34971 ft | 431 kts | 109° |
| 2026-04-24 07:16 | 54.72597 | 120.33309 | 34972 ft | 430 kts | 109° |
| 2026-04-24 07:16 | 54.70897 | 120.43234 | 34972 ft | 430 kts | 109° |
| 2026-04-24 07:17 | 54.69190 | 120.53134 | 34969 ft | 429 kts | 109° |
| 2026-04-24 07:17 | 54.67480 | 120.63009 | 34974 ft | 429 kts | 109° |
| 2026-04-24 07:18 | 54.65758 | 120.72899 | 34974 ft | 429 kts | 110° |
| 2026-04-24 07:18 | 54.64030 | 120.82763 | 34975 ft | 429 kts | 110° |
| 2026-04-24 07:19 | 54.62308 | 120.92544 | 34972 ft | 428 kts | 110° |
| 2026-04-24 07:19 | 54.60571 | 121.02360 | 34971 ft | 428 kts | 110° |
| 2026-04-24 07:20 | 54.58825 | 121.12163 | 34978 ft | 427 kts | 110° |
| 2026-04-24 07:20 | 54.57071 | 121.21961 | 34966 ft | 427 kts | 110° |
| 2026-04-24 07:21 | 54.55316 | 121.31719 | 34961 ft | 427 kts | 111° |
| 2026-04-24 07:21 | 54.53551 | 121.41474 | 34957 ft | 426 kts | 111° |
| 2026-04-24 07:22 | 54.51782 | 121.51196 | 34968 ft | 425 kts | 111° |
| 2026-04-24 07:22 | 54.50006 | 121.60911 | 34966 ft | 426 kts | 111° |
| 2026-04-24 07:23 | 54.48220 | 121.70633 | 34966 ft | 426 kts | 111° |
| 2026-04-24 07:23 | 54.46427 | 121.80341 | 34959 ft | 426 kts | 111° |
| 2026-04-24 07:24 | 54.44627 | 121.90035 | 34958 ft | 425 kts | 111° |
| 2026-04-24 07:24 | 54.42824 | 121.99708 | 34969 ft | 425 kts | 111° |
| 2026-04-24 07:25 | 54.40996 | 122.09344 | 34963 ft | 424 kts | 114° |
| 2026-04-24 07:25 | 54.38864 | 122.18767 | 34965 ft | 423 kts | 116° |
| 2026-04-24 07:26 | 54.36623 | 122.28096 | 34968 ft | 423 kts | 116° |
| 2026-04-24 07:26 | 54.34391 | 122.37421 | 34963 ft | 423 kts | 116° |
| 2026-04-24 07:27 | 54.32174 | 122.46758 | 34954 ft | 422 kts | 116° |
| 2026-04-24 07:27 | 54.29962 | 122.56083 | 34962 ft | 422 kts | 116° |
| 2026-04-24 07:28 | 54.27744 | 122.65387 | 34960 ft | 422 kts | 116° |
| 2026-04-24 07:28 | 54.25518 | 122.74687 | 34950 ft | 422 kts | 116° |
| 2026-04-24 07:29 | 54.23292 | 122.83950 | 34945 ft | 421 kts | 116° |
| 2026-04-24 07:29 | 54.21059 | 122.93194 | 34951 ft | 419 kts | 116° |
| 2026-04-24 07:30 | 54.18831 | 123.02383 | 34950 ft | 418 kts | 117° |
| 2026-04-24 07:30 | 54.16603 | 123.11531 | 34957 ft | 416 kts | 117° |
| 2026-04-24 07:31 | 54.14378 | 123.20631 | 34954 ft | 416 kts | 117° |
| 2026-04-24 07:31 | 54.12148 | 123.29715 | 34959 ft | 414 kts | 117° |
| 2026-04-24 07:32 | 54.09915 | 123.38775 | 34951 ft | 413 kts | 117° |
| 2026-04-24 07:32 | 54.07683 | 123.47789 | 34951 ft | 413 kts | 117° |
| 2026-04-24 07:33 | 54.05448 | 123.56780 | 34953 ft | 412 kts | 118° |
| 2026-04-24 07:33 | 54.03211 | 123.65740 | 34949 ft | 411 kts | 118° |
| 2026-04-24 07:34 | 54.00971 | 123.74680 | 34940 ft | 411 kts | 118° |
| 2026-04-24 07:34 | 53.98727 | 123.83601 | 34951 ft | 410 kts | 118° |
| 2026-04-24 07:35 | 53.96477 | 123.92508 | 34940 ft | 410 kts | 118° |
| 2026-04-24 07:35 | 53.94224 | 124.01389 | 34942 ft | 409 kts | 118° |
| 2026-04-24 07:36 | 53.91982 | 124.10195 | 34939 ft | 409 kts | 118° |
| 2026-04-24 07:36 | 53.89717 | 124.19059 | 34951 ft | 409 kts | 118° |
| 2026-04-24 07:37 | 53.87444 | 124.27919 | 34941 ft | 409 kts | 118° |
| 2026-04-24 07:37 | 53.85159 | 124.36773 | 34945 ft | 410 kts | 118° |
| 2026-04-24 07:38 | 53.82868 | 124.45609 | 34950 ft | 410 kts | 118° |
| 2026-04-24 07:38 | 53.80566 | 124.54461 | 34932 ft | 411 kts | 118° |
| 2026-04-24 07:39 | 53.78254 | 124.63316 | 34943 ft | 412 kts | 118° |
| 2026-04-24 07:39 | 53.75929 | 124.72188 | 34940 ft | 413 kts | 118° |
| 2026-04-24 07:40 | 53.73594 | 124.81062 | 34938 ft | 414 kts | 119° |
| 2026-04-24 07:40 | 53.71245 | 124.89953 | 34940 ft | 415 kts | 118° |
| 2026-04-24 07:41 | 53.68885 | 124.98855 | 34933 ft | 416 kts | 119° |
| 2026-04-24 07:41 | 53.66515 | 125.07759 | 34940 ft | 417 kts | 119° |
| 2026-04-24 07:42 | 53.64131 | 125.16682 | 34939 ft | 418 kts | 119° |
| 2026-04-24 07:42 | 53.62128 | 125.24154 | 34932 ft | 418 kts | 119° |
| 2026-04-24 07:43 | 53.59725 | 125.33084 | 34917 ft | 418 kts | 119° |
| 2026-04-24 07:43 | 53.57317 | 125.41999 | 34917 ft | 419 kts | 119° |
| 2026-04-24 07:44 | 53.54898 | 125.50918 | 34918 ft | 418 kts | 119° |
| 2026-04-24 07:44 | 53.52479 | 125.59807 | 34918 ft | 418 kts | 119° |
| 2026-04-24 07:45 | 53.50054 | 125.68687 | 34915 ft | 417 kts | 120° |
| 2026-04-24 07:45 | 53.47420 | 125.77304 | 34914 ft | 411 kts | 129° |
| 2026-04-24 07:46 | 53.43624 | 125.84326 | 34909 ft | 403 kts | 144° |
| 2026-04-24 07:46 | 53.39225 | 125.90117 | 34917 ft | 402 kts | 145° |
| 2026-04-24 07:47 | 53.34839 | 125.95855 | 34908 ft | 402 kts | 144° |
| 2026-04-24 07:47 | 53.30409 | 126.01675 | 34908 ft | 403 kts | 144° |
| 2026-04-24 07:48 | 53.26003 | 126.07475 | 34910 ft | 403 kts | 144° |
| 2026-04-24 07:48 | 53.21590 | 126.13276 | 34908 ft | 404 kts | 144° |
| 2026-04-24 07:49 | 53.17157 | 126.19090 | 34907 ft | 405 kts | 144° |
| 2026-04-24 07:49 | 53.12742 | 126.24862 | 34908 ft | 406 kts | 144° |
| 2026-04-24 07:50 | 53.08265 | 126.30702 | 34902 ft | 407 kts | 144° |
| 2026-04-24 07:50 | 53.03800 | 126.36512 | 34898 ft | 407 kts | 145° |
| 2026-04-24 07:51 | 52.99354 | 126.42281 | 34900 ft | 408 kts | 145° |
| 2026-04-24 07:51 | 52.94869 | 126.48082 | 34898 ft | 409 kts | 145° |
| 2026-04-24 07:52 | 52.90366 | 126.53891 | 34891 ft | 410 kts | 145° |
| 2026-04-24 07:52 | 52.85855 | 126.59693 | 34891 ft | 410 kts | 145° |
| 2026-04-24 07:53 | 52.81349 | 126.65475 | 34885 ft | 411 kts | 145° |
| 2026-04-24 07:53 | 52.76823 | 126.71269 | 34892 ft | 411 kts | 145° |
| 2026-04-24 07:54 | 52.72302 | 126.77041 | 34889 ft | 411 kts | 145° |
| 2026-04-24 07:54 | 52.67779 | 126.82799 | 34888 ft | 411 kts | 145° |
| 2026-04-24 07:55 | 52.63260 | 126.88538 | 34886 ft | 410 kts | 145° |
| 2026-04-24 07:55 | 52.58740 | 126.94259 | 34890 ft | 410 kts | 145° |
| 2026-04-24 07:56 | 52.54225 | 126.99961 | 34890 ft | 410 kts | 145° |
| 2026-04-24 07:56 | 52.49698 | 127.05665 | 34889 ft | 410 kts | 145° |
| 2026-04-24 07:57 | 52.45167 | 127.11358 | 34888 ft | 410 kts | 146° |
| 2026-04-24 07:57 | 52.40627 | 127.17025 | 34889 ft | 410 kts | 146° |
| 2026-04-24 07:58 | 52.36075 | 127.22650 | 34887 ft | 411 kts | 146° |
| 2026-04-24 07:58 | 52.31504 | 127.28283 | 34890 ft | 411 kts | 146° |
| 2026-04-24 07:59 | 52.26928 | 127.33914 | 34893 ft | 412 kts | 146° |
| 2026-04-24 07:59 | 52.22344 | 127.39545 | 34888 ft | 413 kts | 146° |
| 2026-04-24 08:00 | 52.17773 | 127.45145 | 34892 ft | 414 kts | 146° |
| 2026-04-24 08:00 | 52.13167 | 127.50772 | 34902 ft | 414 kts | 146° |
| 2026-04-24 08:01 | 52.08549 | 127.56403 | 34911 ft | 415 kts | 146° |
| 2026-04-24 08:01 | 52.03917 | 127.62032 | 34909 ft | 416 kts | 146° |
| 2026-04-24 08:02 | 51.98919 | 127.66562 | 34914 ft | 410 kts | 162° |
| 2026-04-24 08:02 | 51.93401 | 127.68721 | 34919 ft | 407 kts | 172° |
| 2026-04-24 08:03 | 51.87799 | 127.70203 | 34914 ft | 408 kts | 172° |
| 2026-04-24 08:03 | 51.82180 | 127.71696 | 34905 ft | 409 kts | 172° |
| 2026-04-24 08:04 | 51.79369 | 127.72457 | 34785 ft | 412 kts | 172° |
| 2026-04-24 08:04 | 51.76518 | 127.73236 | 34282 ft | 416 kts | 172° |
| 2026-04-24 08:04 | 51.73665 | 127.74018 | 33688 ft | 415 kts | 172° |
| 2026-04-24 08:04 | 51.70818 | 127.74799 | 33080 ft | 415 kts | 172° |
| 2026-04-24 08:05 | 51.67972 | 127.75579 | 32442 ft | 415 kts | 172° |
| 2026-04-24 08:05 | 51.65108 | 127.76363 | 31788 ft | 416 kts | 172° |
| 2026-04-24 08:05 | 51.62254 | 127.77143 | 31114 ft | 417 kts | 172° |
| 2026-04-24 08:05 | 51.59389 | 127.77925 | 30421 ft | 418 kts | 172° |
| 2026-04-24 08:06 | 51.56519 | 127.78708 | 29711 ft | 419 kts | 172° |
| 2026-04-24 08:06 | 51.53632 | 127.79495 | 28949 ft | 421 kts | 172° |
| 2026-04-24 08:06 | 51.50739 | 127.80281 | 28154 ft | 423 kts | 172° |
| 2026-04-24 08:06 | 51.47839 | 127.81069 | 27356 ft | 424 kts | 172° |
| 2026-04-24 08:07 | 51.44918 | 127.81862 | 26496 ft | 426 kts | 173° |
| 2026-04-24 08:07 | 51.41989 | 127.82655 | 25610 ft | 429 kts | 173° |
| 2026-04-24 08:07 | 51.39056 | 127.83449 | 24954 ft | 425 kts | 173° |
| 2026-04-24 08:07 | 51.36186 | 127.84226 | 24294 ft | 422 kts | 173° |
| 2026-04-24 08:08 | 51.33302 | 127.85007 | 23668 ft | 418 kts | 173° |
| 2026-04-24 08:08 | 51.30415 | 127.85787 | 23027 ft | 414 kts | 173° |
| 2026-04-24 08:08 | 51.27621 | 127.86538 | 22400 ft | 410 kts | 173° |
| 2026-04-24 08:09 | 51.22030 | 127.88039 | 21124 ft | 404 kts | 173° |
| 2026-04-24 08:09 | 51.19269 | 127.88780 | 20512 ft | 400 kts | 173° |
| 2026-04-24 08:09 | 51.16532 | 127.89513 | 19893 ft | 397 kts | 173° |
| 2026-04-24 08:09 | 51.13833 | 127.90235 | 19280 ft | 393 kts | 173° |
| 2026-04-24 08:10 | 51.11134 | 127.90956 | 18661 ft | 391 kts | 173° |
| 2026-04-24 08:10 | 51.08464 | 127.91672 | 18048 ft | 388 kts | 173° |
| 2026-04-24 08:10 | 51.05812 | 127.92380 | 17445 ft | 385 kts | 173° |
| 2026-04-24 08:10 | 51.03185 | 127.93077 | 16843 ft | 382 kts | 173° |
| 2026-04-24 08:11 | 51.00571 | 127.93770 | 16238 ft | 379 kts | 173° |
| 2026-04-24 08:11 | 50.97981 | 127.94457 | 15633 ft | 376 kts | 172° |
| 2026-04-24 08:11 | 50.95405 | 127.95141 | 15053 ft | 373 kts | 172° |
| 2026-04-24 08:11 | 50.92856 | 127.95817 | 14459 ft | 370 kts | 172° |
| 2026-04-24 08:12 | 50.90324 | 127.96490 | 13876 ft | 367 kts | 172° |
| 2026-04-24 08:12 | 50.87810 | 127.97155 | 13285 ft | 365 kts | 172° |
| 2026-04-24 08:12 | 50.85317 | 127.97813 | 12710 ft | 361 kts | 172° |
| 2026-04-24 08:12 | 50.82850 | 127.98463 | 12162 ft | 358 kts | 172° |
| 2026-04-24 08:13 | 50.80406 | 127.99107 | 11638 ft | 354 kts | 172° |
| 2026-04-24 08:13 | 50.77988 | 127.99743 | 11117 ft | 350 kts | 172° |
| 2026-04-24 08:13 | 50.75627 | 128.00364 | 10954 ft | 337 kts | 171° |
| 2026-04-24 08:13 | 50.73346 | 128.00964 | 10769 ft | 326 kts | 171° |
| 2026-04-24 08:14 | 50.71152 | 128.01540 | 10648 ft | 314 kts | 171° |
| 2026-04-24 08:14 | 50.69036 | 128.02094 | 10524 ft | 303 kts | 171° |
| 2026-04-24 08:14 | 50.66994 | 128.02629 | 10406 ft | 292 kts | 171° |
| 2026-04-24 08:14 | 50.65011 | 128.02679 | 10280 ft | 283 kts | 192° |
| 2026-04-24 08:15 | 50.63215 | 128.01568 | 10174 ft | 275 kts | 209° |
| 2026-04-24 08:15 | 50.61762 | 127.99659 | 10023 ft | 272 kts | 227° |
| 2026-04-24 08:15 | 50.60646 | 127.97341 | 9912 ft | 265 kts | 230° |
| 2026-04-24 08:15 | 50.59578 | 127.94988 | 9642 ft | 264 kts | 230° |
| 2026-04-24 08:16 | 50.58515 | 127.92640 | 9374 ft | 262 kts | 230° |
| 2026-04-24 08:16 | 50.57454 | 127.90316 | 9094 ft | 261 kts | 230° |
| 2026-04-24 08:16 | 50.56431 | 127.88095 | 8821 ft | 260 kts | 229° |
| 2026-04-24 08:16 | 50.55371 | 127.85804 | 8535 ft | 259 kts | 229° |
| 2026-04-24 08:17 | 50.54309 | 127.83515 | 8216 ft | 259 kts | 229° |
| 2026-04-24 08:17 | 50.53374 | 127.81086 | 7905 ft | 265 kts | 247° |
| 2026-04-24 08:17 | 50.53212 | 127.78164 | 7596 ft | 275 kts | 277° |
| 2026-04-24 08:17 | 50.53977 | 127.75388 | 7301 ft | 282 kts | 303° |
| 2026-04-24 08:18 | 50.55190 | 127.72952 | 6971 ft | 285 kts | 307° |
| 2026-04-24 08:18 | 50.56462 | 127.70539 | 6625 ft | 287 kts | 307° |
| 2026-04-24 08:18 | 50.57712 | 127.68178 | 6534 ft | 274 kts | 307° |
| 2026-04-24 08:18 | 50.58895 | 127.65920 | 6417 ft | 260 kts | 307° |
| 2026-04-24 08:19 | 50.60012 | 127.63764 | 6322 ft | 248 kts | 306° |
| 2026-04-24 08:19 | 50.61071 | 127.61709 | 6235 ft | 235 kts | 306° |
| 2026-04-24 08:19 | 50.62067 | 127.59773 | 6142 ft | 221 kts | 306° |
| 2026-04-24 08:19 | 50.63012 | 127.57933 | 5914 ft | 215 kts | 306° |
| 2026-04-24 08:20 | 50.63945 | 127.56103 | 5651 ft | 211 kts | 306° |
| 2026-04-24 08:20 | 50.64563 | 127.54894 | 5493 ft | 208 kts | 306° |
| 2026-04-24 08:20 | 50.65441 | 127.53180 | 5406 ft | 199 kts | 306° |
| 2026-04-24 08:20 | 50.66285 | 127.51401 | 5233 ft | 206 kts | 291° |
| 2026-04-24 08:21 | 50.66484 | 127.49263 | 5031 ft | 196 kts | 250° |
| 2026-04-24 08:21 | 50.65865 | 127.47458 | 4842 ft | 184 kts | 223° |
| 2026-04-24 08:21 | 50.65004 | 127.45962 | 4652 ft | 184 kts | 220° |
| 2026-04-24 08:21 | 50.64126 | 127.44489 | 4433 ft | 183 kts | 220° |
| 2026-04-24 08:22 | 50.63240 | 127.43082 | 4185 ft | 176 kts | 211° |
| 2026-04-24 08:22 | 50.62166 | 127.42374 | 4008 ft | 165 kts | 192° |
| 2026-04-24 08:22 | 50.61053 | 127.41800 | 3824 ft | 171 kts | 194° |
| 2026-04-24 08:22 | 50.59919 | 127.41200 | 3623 ft | 172 kts | 194° |
| 2026-04-24 08:23 | 50.58790 | 127.40604 | 3418 ft | 171 kts | 193° |
| 2026-04-24 08:23 | 50.57670 | 127.40015 | 3205 ft | 168 kts | 193° |
| 2026-04-24 08:23 | 50.56569 | 127.39440 | 3017 ft | 167 kts | 193° |
| 2026-04-24 08:23 | 50.55458 | 127.38863 | 2823 ft | 169 kts | 193° |
| 2026-04-24 08:24 | 50.54328 | 127.38315 | 2590 ft | 169 kts | 185° |
| 2026-04-24 08:24 | 50.53206 | 127.38406 | 2428 ft | 155 kts | 170° |
| 2026-04-24 08:24 | 50.52166 | 127.38563 | 2218 ft | 147 kts | 169° |
| 2026-04-24 08:24 | 50.51170 | 127.38811 | 2023 ft | 145 kts | 166° |
| 2026-04-24 08:25 | 50.50161 | 127.39129 | 1838 ft | 150 kts | 165° |
| 2026-04-24 08:25 | 50.49141 | 127.39459 | 1631 ft | 149 kts | 165° |
| 2026-04-24 08:25 | 50.48126 | 127.39785 | 1427 ft | 149 kts | 166° |
| 2026-04-24 08:25 | 50.47116 | 127.40121 | 1240 ft | 148 kts | 165° |
| 2026-04-24 08:26 | 50.46114 | 127.40455 | 1042 ft | 146 kts | 167° |
| 2026-04-24 08:26 | 50.45126 | 127.40769 | 863 ft | 143 kts | 166° |
| 2026-04-24 08:26 | 50.44151 | 127.41092 | 708 ft | 144 kts | 168° |
| 2026-04-24 08:26 | 50.43206 | 127.41391 | 657 ft | 125 kts | 169° |
| 2026-04-24 08:27 | 50.42505 | 127.41614 | 657 ft | 69 kts | 169° |
| 2026-04-24 08:27 | 50.42328 | 127.41667 | 659 ft | 15 kts | 182° |
| 2026-04-24 08:27 | 50.42268 | 127.41553 | 657 ft | 14 kts | 257° |
| 2026-04-24 08:27 | 50.42249 | 127.41410 | 657 ft | 13 kts | 258° |
| 2026-04-24 08:28 | 50.42231 | 127.41276 | 656 ft | 13 kts | 259° |
| 2026-04-24 08:28 | 50.42213 | 127.41152 | 656 ft | 10 kts | 258° |
| 2026-04-24 08:28 | 50.42211 | 127.41080 | 656 ft | 5 kts | 289° |
| 2026-04-24 08:28 | 50.42243 | 127.41049 | 656 ft | 7 kts | 345° |
| 2026-04-24 08:29 | 50.42299 | 127.41029 | 656 ft | 9 kts | 348° |
| 2026-04-24 08:29 | 50.42344 | 127.40995 | 656 ft | 7 kts | 304° |
| 2026-04-24 08:29 | 50.42347 | 127.40954 | 656 ft | 2 kts | 262° |
| 2026-04-24 08:29 | 50.42347 | 127.40945 | 656 ft | 0 kts | 262° |